createdAt,value
2022-09-03T00:00:47.152Z,16.70
2022-09-03T00:01:47.194Z,16.60
2022-09-03T00:02:47.148Z,16.60
2022-09-03T00:03:47.115Z,16.60
2022-09-03T00:04:47.105Z,16.68
2022-09-03T00:05:47.104Z,16.67
2022-09-03T00:06:47.081Z,16.57
2022-09-03T00:07:47.093Z,16.64
2022-09-03T00:08:47.094Z,16.58
2022-09-03T00:09:47.045Z,16.60
2022-09-03T00:10:47.067Z,16.60
2022-09-03T00:11:47.022Z,16.58
2022-09-03T00:12:47.037Z,16.52
2022-09-03T00:13:47.014Z,16.52
2022-09-03T00:14:46.987Z,16.49
2022-09-03T00:15:47.047Z,16.49
2022-09-03T00:16:46.973Z,16.52
2022-09-03T00:17:46.950Z,16.48
2022-09-03T00:18:46.943Z,16.41
2022-09-03T00:19:46.952Z,16.46
2022-09-03T00:20:46.920Z,16.45
2022-09-03T00:21:46.915Z,16.46
2022-09-03T00:22:46.893Z,16.45
2022-09-03T00:23:46.899Z,16.46
2022-09-03T00:24:46.895Z,16.43
2022-09-03T00:25:46.864Z,16.42
2022-09-03T00:26:46.856Z,16.39
2022-09-03T00:27:46.847Z,16.41
2022-09-03T00:28:46.850Z,16.48
2022-09-03T00:29:46.845Z,16.43
2022-09-03T00:30:46.822Z,16.49
2022-09-03T00:31:46.806Z,16.49
2022-09-03T00:32:46.792Z,16.49
2022-09-03T00:33:46.770Z,16.50
2022-09-03T00:34:46.765Z,16.49
2022-09-03T00:35:46.749Z,16.49
2022-09-03T00:36:46.742Z,16.49
2022-09-03T00:37:46.717Z,16.52
2022-09-03T00:38:46.717Z,16.48
2022-09-03T00:39:46.723Z,16.46
2022-09-03T00:40:46.684Z,16.41
2022-09-03T00:41:46.675Z,16.49
2022-09-03T00:42:46.668Z,16.41
2022-09-03T00:43:46.648Z,16.39
2022-09-03T00:44:46.808Z,16.39
2022-09-03T00:45:46.625Z,16.43
2022-09-03T00:46:46.670Z,16.49
2022-09-03T00:47:46.627Z,16.43
2022-09-03T00:48:46.593Z,16.35
2022-09-03T00:49:46.588Z,16.34
2022-09-03T00:50:46.593Z,16.38
2022-09-03T00:51:46.555Z,16.38
2022-09-03T00:52:46.543Z,16.33
2022-09-03T00:53:46.541Z,16.34
2022-09-03T00:54:46.518Z,16.33
2022-09-03T00:55:46.549Z,16.30
2022-09-03T00:56:46.493Z,16.27
2022-09-03T00:57:47.719Z,16.35
2022-09-03T00:58:46.470Z,16.31
2022-09-03T00:59:46.465Z,16.30
2022-09-03T01:00:46.448Z,16.21
2022-09-03T01:01:46.518Z,16.27
2022-09-03T01:02:46.527Z,16.34
2022-09-03T01:03:46.452Z,16.28
2022-09-03T01:04:46.400Z,16.23
2022-09-03T01:05:46.387Z,16.27
2022-09-03T01:06:46.382Z,16.24
2022-09-03T01:07:46.390Z,16.25
2022-09-03T01:08:49.175Z,16.23
2022-09-03T01:09:46.343Z,16.24
2022-09-03T01:10:46.328Z,16.21
2022-09-03T01:11:46.329Z,16.27
2022-09-03T01:12:46.344Z,16.20
2022-09-03T01:13:46.322Z,16.23
2022-09-03T01:14:46.280Z,16.15
2022-09-03T01:15:46.381Z,16.15
2022-09-03T01:16:46.257Z,16.20
2022-09-03T01:17:46.246Z,16.12
2022-09-03T01:18:46.257Z,16.24
2022-09-03T01:19:46.221Z,16.21
2022-09-03T01:20:46.230Z,16.23
2022-09-03T01:21:46.198Z,16.12
2022-09-03T01:22:46.207Z,16.21
2022-09-03T01:23:46.223Z,16.24
2022-09-03T01:24:46.157Z,16.30
2022-09-03T01:25:46.165Z,16.27
2022-09-03T01:26:46.160Z,16.25
2022-09-03T01:27:46.128Z,16.27
2022-09-03T01:28:46.179Z,16.28
2022-09-03T01:29:46.105Z,16.27
2022-09-03T01:30:46.140Z,16.14
2022-09-03T01:31:46.091Z,16.15
2022-09-03T01:32:46.066Z,16.24
2022-09-03T01:33:46.093Z,16.20
2022-09-03T01:34:46.043Z,16.21
2022-09-03T01:35:46.052Z,16.25
2022-09-03T01:36:46.015Z,16.27
2022-09-03T01:37:46.018Z,16.11
2022-09-03T01:38:45.997Z,16.15
2022-09-03T01:39:46.051Z,16.20
2022-09-03T01:40:45.969Z,16.23
2022-09-03T01:41:45.961Z,16.21
2022-09-03T01:42:45.945Z,16.21
2022-09-03T01:43:45.937Z,16.20
2022-09-03T01:44:45.944Z,16.23
2022-09-03T01:45:51.327Z,16.21
2022-09-03T01:46:45.994Z,16.14
2022-09-03T01:47:45.885Z,16.20
2022-09-03T01:48:45.875Z,16.21
2022-09-03T01:49:45.866Z,16.23
2022-09-03T01:50:45.912Z,16.21
2022-09-03T01:51:45.847Z,16.15
2022-09-03T01:52:45.826Z,16.14
2022-09-03T01:53:45.816Z,16.20
2022-09-03T01:54:45.803Z,16.09
2022-09-03T01:55:45.819Z,16.12
2022-09-03T01:56:45.795Z,16.09
2022-09-03T01:57:45.827Z,16.04
2022-09-03T01:58:45.757Z,16.15
2022-09-03T01:59:45.760Z,16.11
2022-09-03T02:00:45.753Z,16.15
2022-09-03T02:01:45.769Z,16.11
2022-09-03T02:02:45.790Z,16.14
2022-09-03T02:03:45.699Z,16.08
2022-09-03T02:04:45.680Z,16.07
2022-09-03T02:05:45.699Z,16.07
2022-09-03T02:06:45.656Z,16.12
2022-09-03T02:07:45.659Z,16.08
2022-09-03T02:08:45.677Z,16.05
2022-09-03T02:09:45.624Z,16.04
2022-09-03T02:10:45.607Z,16.02
2022-09-03T02:11:45.596Z,15.92
2022-09-03T02:12:45.608Z,15.92
2022-09-03T02:13:45.576Z,16.05
2022-09-03T02:14:45.567Z,16.04
2022-09-03T02:15:45.601Z,16.05
2022-09-03T02:16:45.533Z,16.00
2022-09-03T02:17:45.561Z,16.05
2022-09-03T02:18:45.520Z,16.04
2022-09-03T02:19:45.504Z,16.01
2022-09-03T02:20:45.486Z,16.00
2022-09-03T02:21:45.477Z,15.94
2022-09-03T02:22:45.460Z,15.93
2022-09-03T02:23:45.492Z,15.90
2022-09-03T02:24:45.436Z,15.93
2022-09-03T02:25:45.456Z,16.00
2022-09-03T02:26:45.410Z,15.92
2022-09-03T02:27:45.418Z,15.92
2022-09-03T02:28:45.429Z,15.94
2022-09-03T02:29:45.376Z,15.94
2022-09-03T02:30:45.457Z,15.94
2022-09-03T02:31:45.350Z,15.92
2022-09-03T02:32:45.339Z,15.97
2022-09-03T02:33:45.332Z,15.92
2022-09-03T02:34:45.393Z,15.93
2022-09-03T02:35:45.308Z,15.92
2022-09-03T02:36:45.295Z,15.90
2022-09-03T02:37:45.302Z,15.89
2022-09-03T02:38:45.264Z,15.86
2022-09-03T02:39:45.275Z,15.86
2022-09-03T02:40:45.264Z,15.82
2022-09-03T02:41:45.228Z,15.83
2022-09-03T02:42:45.267Z,15.84
2022-09-03T02:43:45.202Z,15.80
2022-09-03T02:44:45.190Z,15.78
2022-09-03T02:45:45.219Z,15.78
2022-09-03T02:46:45.166Z,15.82
2022-09-03T02:47:45.185Z,15.67
2022-09-03T02:48:45.145Z,15.72
2022-09-03T02:49:45.130Z,15.71
2022-09-03T02:50:45.128Z,15.68
2022-09-03T02:51:45.120Z,15.68
2022-09-03T02:52:45.118Z,15.72
2022-09-03T02:53:45.090Z,15.80
2022-09-03T02:54:45.069Z,15.74
2022-09-03T02:55:45.058Z,15.72
2022-09-03T02:56:45.043Z,15.78
2022-09-03T02:57:45.061Z,15.71
2022-09-03T02:58:45.016Z,15.82
2022-09-03T02:59:45.008Z,15.82
2022-09-03T03:00:45.006Z,15.82
2022-09-03T03:01:46.510Z,15.78
2022-09-03T03:02:45.016Z,15.75
2022-09-03T03:03:44.960Z,15.78
2022-09-03T03:04:44.943Z,15.80
2022-09-03T03:05:44.979Z,15.80
2022-09-03T03:06:45.712Z,15.67
2022-09-03T03:07:44.906Z,15.69
2022-09-03T03:08:44.934Z,15.71
2022-09-03T03:09:44.885Z,15.67
2022-09-03T03:10:44.879Z,15.72
2022-09-03T03:11:44.858Z,15.74
2022-09-03T03:12:44.848Z,15.75
2022-09-03T03:13:44.886Z,15.71
2022-09-03T03:14:44.885Z,15.71
2022-09-03T03:15:44.810Z,15.68
2022-09-03T03:16:44.848Z,15.69
2022-09-03T03:17:44.804Z,15.71
2022-09-03T03:18:44.766Z,15.72
2022-09-03T03:19:44.764Z,15.72
2022-09-03T03:20:44.806Z,15.60
2022-09-03T03:21:44.732Z,15.59
2022-09-03T03:22:44.717Z,15.62
2022-09-03T03:23:44.711Z,15.67
2022-09-03T03:24:44.693Z,15.59
2022-09-03T03:25:44.696Z,15.57
2022-09-03T03:26:44.672Z,15.60
2022-09-03T03:27:44.657Z,15.62
2022-09-03T03:28:44.645Z,15.64
2022-09-03T03:29:44.633Z,15.62
2022-09-03T03:30:44.687Z,15.69
2022-09-03T03:31:44.614Z,15.54
2022-09-03T03:32:44.600Z,15.62
2022-09-03T03:33:44.586Z,15.49
2022-09-03T03:34:44.586Z,15.54
2022-09-03T03:35:44.591Z,15.56
2022-09-03T03:36:44.571Z,15.47
2022-09-03T03:37:44.535Z,15.50
2022-09-03T03:38:44.524Z,15.54
2022-09-03T03:39:44.585Z,15.57
2022-09-03T03:40:44.495Z,15.50
2022-09-03T03:41:44.517Z,15.49
2022-09-03T03:42:44.470Z,15.51
2022-09-03T03:43:44.484Z,15.53
2022-09-03T03:44:44.447Z,15.54
2022-09-03T03:45:44.473Z,15.56
2022-09-03T03:46:44.421Z,15.51
2022-09-03T03:47:44.440Z,15.41
2022-09-03T03:48:44.396Z,15.46
2022-09-03T03:49:44.413Z,15.36
2022-09-03T03:50:44.372Z,15.38
2022-09-03T03:51:44.358Z,15.39
2022-09-03T03:52:44.393Z,15.44
2022-09-03T03:53:44.342Z,15.36
2022-09-03T03:54:44.322Z,15.44
2022-09-03T03:55:44.354Z,15.35
2022-09-03T03:56:44.296Z,15.47
2022-09-03T03:57:44.311Z,15.41
2022-09-03T03:58:44.382Z,15.46
2022-09-03T03:59:44.264Z,15.46
2022-09-03T04:00:44.243Z,15.43
2022-09-03T04:01:44.302Z,15.46
2022-09-03T04:02:44.307Z,15.46
2022-09-03T04:03:44.224Z,15.39
2022-09-03T04:04:44.196Z,15.39
2022-09-03T04:05:48.497Z,15.44
2022-09-03T04:06:44.168Z,15.39
2022-09-03T04:07:44.157Z,15.44
2022-09-03T04:08:44.171Z,15.44
2022-09-03T04:09:44.162Z,15.38
2022-09-03T04:10:44.120Z,15.44
2022-09-03T04:11:44.107Z,15.36
2022-09-03T04:12:44.093Z,15.38
2022-09-03T04:13:44.082Z,15.38
2022-09-03T04:14:44.097Z,15.41
2022-09-03T04:15:44.082Z,15.44
2022-09-03T04:16:44.113Z,15.32
2022-09-03T04:17:44.034Z,15.39
2022-09-03T04:18:44.019Z,15.36
2022-09-03T04:19:44.031Z,15.31
2022-09-03T04:20:43.996Z,15.41
2022-09-03T04:21:43.979Z,15.38
2022-09-03T04:22:43.965Z,15.47
2022-09-03T04:23:43.956Z,15.43
2022-09-03T04:24:43.971Z,15.35
2022-09-03T04:25:43.931Z,15.36
2022-09-03T04:26:43.916Z,15.39
2022-09-03T04:27:43.906Z,15.36
2022-09-03T04:28:43.892Z,15.38
2022-09-03T04:29:43.891Z,15.25
2022-09-03T04:30:43.893Z,15.28
2022-09-03T04:31:43.851Z,15.27
2022-09-03T04:32:43.837Z,15.23
2022-09-03T04:33:43.906Z,15.25
2022-09-03T04:34:43.815Z,15.23
2022-09-03T04:35:43.820Z,15.29
2022-09-03T04:36:43.799Z,15.29
2022-09-03T04:37:43.781Z,15.23
2022-09-03T04:38:43.763Z,15.29
2022-09-03T04:39:43.867Z,15.23
2022-09-03T04:40:43.742Z,15.20
2022-09-03T04:41:43.741Z,15.17
2022-09-03T04:42:43.722Z,15.21
2022-09-03T04:43:43.705Z,15.28
2022-09-03T04:44:43.722Z,15.31
2022-09-03T04:45:43.713Z,15.17
2022-09-03T04:46:43.660Z,15.17
2022-09-03T04:47:43.649Z,15.20
2022-09-03T04:48:43.663Z,15.13
2022-09-03T04:49:43.639Z,15.17
2022-09-03T04:50:43.613Z,15.17
2022-09-03T04:51:43.598Z,15.23
2022-09-03T04:52:43.588Z,15.13
2022-09-03T04:53:43.649Z,15.17
2022-09-03T04:54:43.562Z,15.20
2022-09-03T04:55:43.547Z,15.19
2022-09-03T04:56:43.540Z,15.17
2022-09-03T04:57:43.523Z,15.06
2022-09-03T04:58:43.522Z,15.10
2022-09-03T04:59:43.520Z,15.09
2022-09-03T05:00:43.547Z,15.19
2022-09-03T05:01:43.468Z,15.13
2022-09-03T05:02:43.461Z,15.19
2022-09-03T05:03:43.444Z,15.14
2022-09-03T05:04:43.459Z,15.13
2022-09-03T05:05:43.424Z,15.10
2022-09-03T05:06:43.418Z,15.13
2022-09-03T05:07:43.395Z,15.11
2022-09-03T05:08:43.382Z,15.16
2022-09-03T05:09:43.420Z,15.14
2022-09-03T05:10:43.361Z,15.20
2022-09-03T05:11:43.346Z,15.17
2022-09-03T05:12:43.330Z,15.17
2022-09-03T05:13:43.349Z,15.17
2022-09-03T05:14:43.314Z,15.25
2022-09-03T05:15:43.293Z,15.19
2022-09-03T05:16:43.336Z,15.16
2022-09-03T05:17:43.289Z,15.17
2022-09-03T05:18:43.255Z,15.16
2022-09-03T05:19:43.287Z,15.16
2022-09-03T05:20:43.229Z,15.19
2022-09-03T05:21:43.213Z,15.23
2022-09-03T05:22:43.253Z,15.09
2022-09-03T05:23:43.188Z,15.23
2022-09-03T05:24:43.204Z,15.21
2022-09-03T05:25:43.165Z,15.19
2022-09-03T05:26:43.154Z,15.19
2022-09-03T05:27:43.137Z,15.11
2022-09-03T05:28:43.139Z,15.14
2022-09-03T05:29:43.135Z,15.21
2022-09-03T05:30:43.104Z,15.23
2022-09-03T05:31:43.111Z,15.32
2022-09-03T05:32:43.073Z,15.27
2022-09-03T05:33:43.079Z,15.36
2022-09-03T05:34:43.073Z,15.34
2022-09-03T05:35:43.039Z,15.34
2022-09-03T05:36:43.031Z,15.36
2022-09-03T05:37:43.014Z,15.34
2022-09-03T05:38:43.003Z,15.35
2022-09-03T05:39:43.072Z,15.36
2022-09-03T05:40:42.972Z,15.44
2022-09-03T05:41:42.959Z,15.39
2022-09-03T05:42:42.944Z,15.34
2022-09-03T05:43:42.927Z,15.34
2022-09-03T05:44:42.952Z,15.36
2022-09-03T05:45:42.933Z,15.41
2022-09-03T05:46:42.928Z,15.49
2022-09-03T05:47:42.881Z,15.51
2022-09-03T05:48:42.870Z,15.49
2022-09-03T05:49:42.887Z,15.49
2022-09-03T05:50:42.841Z,15.54
2022-09-03T05:51:42.854Z,15.54
2022-09-03T05:52:42.817Z,15.56
2022-09-03T05:53:42.800Z,15.56
2022-09-03T05:54:42.795Z,15.57
2022-09-03T05:55:42.779Z,15.59
2022-09-03T05:56:42.948Z,15.62
2022-09-03T05:57:42.749Z,15.64
2022-09-03T05:58:42.738Z,15.56
2022-09-03T05:59:42.729Z,15.56
2022-09-03T06:00:42.712Z,15.72
2022-09-03T06:01:44.005Z,15.69
2022-09-03T06:02:42.871Z,15.72
2022-09-03T06:03:42.747Z,15.72
2022-09-03T06:04:42.661Z,15.75
2022-09-03T06:05:42.671Z,15.68
2022-09-03T06:06:42.690Z,15.82
2022-09-03T06:07:42.623Z,15.72
2022-09-03T06:08:42.614Z,15.75
2022-09-03T06:09:42.602Z,15.71
2022-09-03T06:10:42.794Z,15.80
2022-09-03T06:11:42.595Z,15.83
2022-09-03T06:12:42.558Z,15.94
2022-09-03T06:13:42.599Z,15.84
2022-09-03T06:14:42.534Z,15.80
2022-09-03T06:15:42.518Z,15.96
2022-09-03T06:16:42.553Z,15.89
2022-09-03T06:17:42.515Z,15.93
2022-09-03T06:18:42.500Z,15.94
2022-09-03T06:19:42.473Z,15.93
2022-09-03T06:20:42.458Z,15.94
2022-09-03T06:21:42.455Z,16.04
2022-09-03T06:22:42.441Z,16.01
2022-09-03T06:23:46.594Z,16.00
2022-09-03T06:24:42.432Z,16.02
2022-09-03T06:25:42.396Z,16.07
2022-09-03T06:26:42.874Z,16.09
2022-09-03T06:27:42.367Z,16.05
2022-09-03T06:28:42.377Z,16.15
2022-09-03T06:29:42.401Z,16.11
2022-09-03T06:30:42.334Z,16.11
2022-09-03T06:31:42.424Z,16.20
2022-09-03T06:32:42.306Z,16.12
2022-09-03T06:33:42.304Z,16.24
2022-09-03T06:34:42.281Z,16.21
2022-09-03T06:35:43.087Z,16.25
2022-09-03T06:36:42.262Z,16.17
2022-09-03T06:37:42.278Z,16.25
2022-09-03T06:38:42.264Z,16.24
2022-09-03T06:39:42.287Z,16.31
2022-09-03T06:40:42.377Z,16.28
2022-09-03T06:41:42.194Z,16.35
2022-09-03T06:42:42.185Z,16.45
2022-09-03T06:43:42.170Z,16.41
2022-09-03T06:44:42.177Z,16.46
2022-09-03T06:45:42.197Z,16.43
2022-09-03T06:46:42.146Z,16.43
2022-09-03T06:47:42.120Z,16.50
2022-09-03T06:48:42.127Z,16.48
2022-09-03T06:49:42.098Z,16.52
2022-09-03T06:50:42.088Z,16.49
2022-09-03T06:51:42.370Z,16.56
2022-09-03T06:52:42.061Z,16.58
2022-09-03T06:53:42.051Z,16.63
2022-09-03T06:54:42.073Z,16.57
2022-09-03T06:55:42.024Z,16.63
2022-09-03T06:56:42.017Z,16.57
2022-09-03T06:57:42.008Z,16.67
2022-09-03T06:58:41.988Z,16.60
2022-09-03T06:59:42.059Z,16.70
2022-09-03T07:00:42.149Z,16.71
2022-09-03T07:01:43.771Z,16.75
2022-09-03T07:02:44.957Z,16.73
2022-09-03T07:03:42.059Z,16.71
2022-09-03T07:04:42.035Z,16.73
2022-09-03T07:05:42.005Z,16.83
2022-09-03T07:06:41.964Z,16.88
2022-09-03T07:07:41.965Z,16.94
2022-09-03T07:08:41.945Z,16.93
2022-09-03T07:09:45.159Z,16.94
2022-09-03T07:10:41.915Z,16.88
2022-09-03T07:11:41.882Z,16.94
2022-09-03T07:12:41.878Z,16.83
2022-09-03T07:13:41.925Z,16.82
2022-09-03T07:14:41.896Z,16.83
2022-09-03T07:15:41.932Z,16.89
2022-09-03T07:16:41.913Z,16.93
2022-09-03T07:17:41.814Z,16.93
2022-09-03T07:18:41.792Z,16.96
2022-09-03T07:19:41.798Z,16.98
2022-09-03T07:20:41.881Z,17.06
2022-09-03T07:21:45.260Z,17.01
2022-09-03T07:22:41.777Z,17.03
2022-09-03T07:23:41.754Z,17.11
2022-09-03T07:24:41.717Z,17.06
2022-09-03T07:25:41.709Z,16.97
2022-09-03T07:26:41.714Z,17.07
2022-09-03T07:27:41.654Z,17.14
2022-09-03T07:28:41.662Z,17.16
2022-09-03T07:29:41.622Z,17.14
2022-09-03T07:30:41.607Z,17.15
2022-09-03T07:31:41.645Z,17.19
2022-09-03T07:32:41.610Z,17.16
2022-09-03T07:33:41.597Z,17.19
2022-09-03T07:34:41.906Z,17.30
2022-09-03T07:35:41.546Z,17.31
2022-09-03T07:36:41.540Z,17.40
2022-09-03T07:37:41.550Z,17.34
2022-09-03T07:38:41.579Z,17.40
2022-09-03T07:39:41.578Z,17.46
2022-09-03T07:40:41.492Z,17.44
2022-09-03T07:41:41.544Z,17.43
2022-09-03T07:42:41.467Z,17.44
2022-09-03T07:43:41.466Z,17.52
2022-09-03T07:44:41.448Z,17.46
2022-09-03T07:45:41.441Z,17.55
2022-09-03T07:46:41.456Z,17.58
2022-09-03T07:47:41.411Z,17.55
2022-09-03T07:48:41.406Z,17.59
2022-09-03T07:49:41.387Z,17.68
2022-09-03T07:50:41.375Z,17.68
2022-09-03T07:51:41.389Z,17.59
2022-09-03T07:52:41.382Z,17.58
2022-09-03T07:53:41.339Z,17.64
2022-09-03T07:54:41.331Z,17.70
2022-09-03T07:55:41.319Z,17.70
2022-09-03T07:56:41.320Z,17.74
2022-09-03T07:57:41.294Z,17.72
2022-09-03T07:58:41.319Z,17.75
2022-09-03T07:59:41.272Z,17.75
2022-09-03T08:00:41.290Z,17.71
2022-09-03T08:01:41.752Z,17.78
2022-09-03T08:02:45.956Z,17.78
2022-09-03T08:03:41.441Z,17.77
2022-09-03T08:04:41.246Z,17.74
2022-09-03T08:05:41.204Z,17.74
2022-09-03T08:06:41.198Z,17.66
2022-09-03T08:07:41.211Z,17.70
2022-09-03T08:08:41.185Z,17.78
2022-09-03T08:09:41.162Z,17.75
2022-09-03T08:10:41.169Z,17.82
2022-09-03T08:11:41.142Z,17.92
2022-09-03T08:12:41.137Z,17.93
2022-09-03T08:13:41.118Z,18.08
2022-09-03T08:14:41.113Z,18.05
2022-09-03T08:15:41.169Z,18.15
2022-09-03T08:16:41.113Z,18.12
2022-09-03T08:17:41.079Z,18.03
2022-09-03T08:18:41.072Z,18.05
2022-09-03T08:19:41.091Z,18.12
2022-09-03T08:20:41.178Z,18.20
2022-09-03T08:21:41.038Z,18.23
2022-09-03T08:22:41.029Z,18.25
2022-09-03T08:23:41.012Z,18.32
2022-09-03T08:24:41.014Z,18.32
2022-09-03T08:25:40.995Z,18.32
2022-09-03T08:26:41.025Z,18.37
2022-09-03T08:27:41.004Z,18.39
2022-09-03T08:28:40.966Z,18.44
2022-09-03T08:29:40.952Z,18.54
2022-09-03T08:30:40.946Z,18.55
2022-09-03T08:31:41.027Z,18.72
2022-09-03T08:32:40.971Z,18.72
2022-09-03T08:33:40.929Z,18.78
2022-09-03T08:34:40.908Z,18.81
2022-09-03T08:35:40.928Z,18.78
2022-09-03T08:36:40.914Z,18.67
2022-09-03T08:37:40.876Z,18.81
2022-09-03T08:38:40.890Z,18.81
2022-09-03T08:39:40.918Z,18.82
2022-09-03T08:40:40.908Z,18.87
2022-09-03T08:41:40.875Z,18.84
2022-09-03T08:42:40.838Z,18.76
2022-09-03T08:43:40.818Z,18.84
2022-09-03T08:44:40.825Z,18.87
2022-09-03T08:45:40.800Z,18.90
2022-09-03T08:46:40.845Z,18.88
2022-09-03T08:47:40.779Z,18.91
2022-09-03T08:48:40.770Z,18.99
2022-09-03T08:49:40.765Z,18.99
2022-09-03T08:50:40.751Z,19.11
2022-09-03T08:51:40.739Z,19.18
2022-09-03T08:52:40.793Z,19.23
2022-09-03T08:53:40.728Z,19.14
2022-09-03T08:54:40.712Z,19.25
2022-09-03T08:55:40.723Z,19.25
2022-09-03T08:56:40.704Z,19.28
2022-09-03T08:57:40.681Z,19.39
2022-09-03T08:58:40.678Z,19.43
2022-09-03T08:59:40.687Z,19.44
2022-09-03T09:00:40.657Z,19.43
2022-09-03T09:01:40.747Z,19.41
2022-09-03T09:02:40.752Z,19.41
2022-09-03T09:03:40.679Z,19.46
2022-09-03T09:04:40.631Z,19.44
2022-09-03T09:05:40.607Z,19.58
2022-09-03T09:06:40.603Z,19.56
2022-09-03T09:07:40.587Z,19.56
2022-09-03T09:08:40.585Z,19.63
2022-09-03T09:09:40.602Z,19.73
2022-09-03T09:10:40.562Z,19.73
2022-09-03T09:11:40.552Z,19.77
2022-09-03T09:12:46.372Z,19.73
2022-09-03T09:13:40.562Z,19.68
2022-09-03T09:14:40.522Z,19.74
2022-09-03T09:15:40.567Z,19.76
2022-09-03T09:16:40.528Z,19.77
2022-09-03T09:17:40.521Z,19.86
2022-09-03T09:18:40.488Z,19.86
2022-09-03T09:19:40.484Z,19.91
2022-09-03T09:20:40.466Z,19.87
2022-09-03T09:21:40.491Z,19.96
2022-09-03T09:22:40.460Z,19.88
2022-09-03T09:23:40.442Z,19.87
2022-09-03T09:24:40.435Z,19.84
2022-09-03T09:25:40.442Z,19.83
2022-09-03T09:26:40.420Z,19.86
2022-09-03T09:27:40.425Z,19.83
2022-09-03T09:28:40.409Z,19.91
2022-09-03T09:29:40.403Z,19.91
2022-09-03T09:30:40.384Z,19.84
2022-09-03T09:31:40.497Z,19.92
2022-09-03T09:32:40.360Z,19.83
2022-09-03T09:33:40.349Z,19.94
2022-09-03T09:34:40.341Z,19.98
2022-09-03T09:35:40.331Z,20.01
2022-09-03T09:36:40.349Z,19.99
2022-09-03T09:37:40.319Z,19.95
2022-09-03T09:38:40.419Z,20.03
2022-09-03T09:39:40.383Z,20.08
2022-09-03T09:40:44.767Z,20.02
2022-09-03T09:41:40.283Z,20.05
2022-09-03T09:42:40.264Z,20.05
2022-09-03T09:43:40.265Z,20.03
2022-09-03T09:44:40.268Z,20.03
2022-09-03T09:45:40.241Z,20.14
2022-09-03T09:46:40.262Z,20.18
2022-09-03T09:47:40.299Z,20.24
2022-09-03T09:48:40.209Z,20.29
2022-09-03T09:49:40.198Z,20.38
2022-09-03T09:50:40.192Z,20.36
2022-09-03T09:51:40.192Z,20.43
2022-09-03T09:52:40.169Z,20.52
2022-09-03T09:53:40.191Z,20.50
2022-09-03T09:54:40.148Z,20.54
2022-09-03T09:55:40.142Z,20.54
2022-09-03T09:56:40.130Z,20.59
2022-09-03T09:57:40.121Z,20.59
2022-09-03T09:58:40.111Z,20.62
2022-09-03T09:59:40.111Z,20.62
2022-09-03T10:00:40.094Z,20.70
2022-09-03T10:01:40.162Z,20.76
2022-09-03T10:02:40.101Z,20.66
2022-09-03T10:03:40.093Z,20.74
2022-09-03T10:04:40.066Z,20.66
2022-09-03T10:05:40.045Z,20.74
2022-09-03T10:06:40.037Z,20.80
2022-09-03T10:07:40.037Z,20.70
2022-09-03T10:08:40.018Z,20.79
2022-09-03T10:09:40.015Z,20.82
2022-09-03T10:10:39.997Z,20.77
2022-09-03T10:11:40.015Z,20.76
2022-09-03T10:12:39.981Z,20.79
2022-09-03T10:13:39.976Z,20.91
2022-09-03T10:14:40.161Z,20.67
2022-09-03T10:15:40.033Z,20.80
2022-09-03T10:16:39.942Z,20.73
2022-09-03T10:17:39.950Z,20.69
2022-09-03T10:18:39.925Z,20.70
2022-09-03T10:19:39.916Z,20.82
2022-09-03T10:20:39.917Z,20.77
2022-09-03T10:21:39.897Z,20.84
2022-09-03T10:22:39.886Z,20.84
2022-09-03T10:23:39.876Z,20.85
2022-09-03T10:24:39.871Z,20.91
2022-09-03T10:25:39.911Z,20.92
2022-09-03T10:26:39.853Z,20.95
2022-09-03T10:27:41.149Z,21.03
2022-09-03T10:28:39.831Z,21.12
2022-09-03T10:29:39.843Z,21.12
2022-09-03T10:30:39.851Z,21.16
2022-09-03T10:31:39.818Z,21.19
2022-09-03T10:32:41.866Z,21.22
2022-09-03T10:33:39.783Z,21.29
2022-09-03T10:34:39.776Z,21.24
2022-09-03T10:35:39.772Z,21.22
2022-09-03T10:36:39.762Z,21.29
2022-09-03T10:37:39.751Z,21.21
2022-09-03T10:38:39.744Z,21.31
2022-09-03T10:39:43.320Z,21.29
2022-09-03T10:40:39.718Z,21.35
2022-09-03T10:41:39.737Z,21.38
2022-09-03T10:42:39.702Z,21.44
2022-09-03T10:43:39.698Z,21.38
2022-09-03T10:44:39.692Z,21.32
2022-09-03T10:45:39.684Z,21.42
2022-09-03T10:46:39.708Z,21.50
2022-09-03T10:47:39.695Z,21.50
2022-09-03T10:48:39.645Z,21.47
2022-09-03T10:49:39.640Z,21.49
2022-09-03T10:50:39.633Z,21.52
2022-09-03T10:51:39.634Z,21.47
2022-09-03T10:52:39.621Z,21.46
2022-09-03T10:53:39.604Z,21.52
2022-09-03T10:54:39.617Z,21.56
2022-09-03T10:55:39.592Z,21.50
2022-09-03T10:56:39.579Z,21.53
2022-09-03T10:57:39.648Z,21.50
2022-09-03T10:58:39.563Z,21.62
2022-09-03T10:59:39.547Z,21.67
2022-09-03T11:00:39.591Z,21.75
2022-09-03T11:01:39.601Z,21.75
2022-09-03T11:02:39.558Z,21.75
2022-09-03T11:03:39.513Z,21.77
2022-09-03T11:04:39.504Z,21.86
2022-09-03T11:05:39.537Z,21.79
2022-09-03T11:06:39.485Z,21.77
2022-09-03T11:07:39.508Z,21.82
2022-09-03T11:08:39.528Z,21.80
2022-09-03T11:09:39.485Z,21.92
2022-09-03T11:10:39.675Z,21.96
2022-09-03T11:11:39.449Z,21.94
2022-09-03T11:12:39.590Z,21.96
2022-09-03T11:13:39.451Z,21.92
2022-09-03T11:14:39.416Z,21.92
2022-09-03T11:15:39.457Z,21.88
2022-09-03T11:16:39.404Z,21.98
2022-09-03T11:17:39.417Z,21.98
2022-09-03T11:18:39.430Z,21.91
2022-09-03T11:19:39.409Z,21.94
2022-09-03T11:20:39.361Z,21.92
2022-09-03T11:21:39.364Z,21.92
2022-09-03T11:22:39.343Z,21.96
2022-09-03T11:23:39.409Z,21.91
2022-09-03T11:24:39.352Z,21.90
2022-09-03T11:25:39.327Z,21.96
2022-09-03T11:26:39.331Z,21.90
2022-09-03T11:27:39.304Z,22.06
2022-09-03T11:28:39.453Z,22.02
2022-09-03T11:29:39.320Z,22.00
2022-09-03T11:30:39.420Z,22.03
2022-09-03T11:31:39.267Z,22.03
2022-09-03T11:32:39.259Z,22.06
2022-09-03T11:33:39.253Z,22.17
2022-09-03T11:34:39.280Z,22.18
2022-09-03T11:35:39.312Z,22.15
2022-09-03T11:36:39.223Z,22.25
2022-09-03T11:37:39.232Z,22.18
2022-09-03T11:38:39.208Z,22.17
2022-09-03T11:39:39.294Z,22.27
2022-09-03T11:40:39.188Z,22.30
2022-09-03T11:41:39.188Z,22.24
2022-09-03T11:42:39.173Z,22.40
2022-09-03T11:43:39.165Z,22.40
2022-09-03T11:44:48.019Z,22.45
2022-09-03T11:45:39.232Z,22.40
2022-09-03T11:46:39.178Z,22.37
2022-09-03T11:47:39.152Z,22.31
2022-09-03T11:48:39.123Z,22.17
2022-09-03T11:49:39.144Z,22.21
2022-09-03T11:50:39.106Z,22.22
2022-09-03T11:51:39.113Z,22.17
2022-09-03T11:52:39.089Z,22.25
2022-09-03T11:53:39.082Z,22.24
2022-09-03T11:54:39.074Z,22.24
2022-09-03T11:55:43.374Z,22.18
2022-09-03T11:56:39.068Z,22.15
2022-09-03T11:57:39.049Z,22.33
2022-09-03T11:58:39.040Z,22.35
2022-09-03T11:59:39.031Z,22.43
2022-09-03T12:00:39.053Z,22.35
2022-09-03T12:01:39.045Z,22.37
2022-09-03T12:02:39.199Z,22.31
2022-09-03T12:03:38.993Z,22.22
2022-09-03T12:04:39.051Z,22.17
2022-09-03T12:05:39.027Z,22.21
2022-09-03T12:06:39.147Z,22.17
2022-09-03T12:07:38.961Z,22.14
2022-09-03T12:08:38.978Z,22.27
2022-09-03T12:09:38.961Z,22.30
2022-09-03T12:10:38.935Z,22.36
2022-09-03T12:11:38.931Z,22.42
2022-09-03T12:12:38.933Z,22.45
2022-09-03T12:13:38.921Z,22.43
2022-09-03T12:14:38.900Z,22.49
2022-09-03T12:15:39.020Z,22.60
2022-09-03T12:16:38.885Z,22.61
2022-09-03T12:17:38.928Z,22.70
2022-09-03T12:18:38.866Z,22.82
2022-09-03T12:19:38.861Z,22.85
2022-09-03T12:20:38.864Z,22.82
2022-09-03T12:21:38.848Z,22.79
2022-09-03T12:22:38.837Z,22.79
2022-09-03T12:23:38.858Z,22.88
2022-09-03T12:24:38.828Z,22.82
2022-09-03T12:25:38.816Z,22.88
2022-09-03T12:26:38.826Z,22.86
2022-09-03T12:27:38.827Z,22.86
2022-09-03T12:28:38.785Z,22.90
2022-09-03T12:29:38.814Z,23.04
2022-09-03T12:30:38.854Z,23.01
2022-09-03T12:31:42.971Z,23.09
2022-09-03T12:32:38.757Z,23.05
2022-09-03T12:33:38.751Z,23.16
2022-09-03T12:34:38.741Z,23.19
2022-09-03T12:36:38.726Z,23.19
2022-09-03T12:39:07.685Z,23.15
2022-09-03T12:40:09.103Z,23.09
2022-09-03T12:41:23.016Z,22.91
2022-09-03T12:41:38.726Z,22.88
2022-09-03T12:42:38.677Z,23.04
2022-09-03T12:43:39.590Z,23.02
2022-09-03T12:44:38.685Z,23.07
2022-09-03T12:46:38.726Z,23.22
2022-09-03T12:47:38.730Z,23.32
2022-09-03T12:48:40.427Z,23.47
2022-09-03T12:49:38.669Z,23.53
2022-09-03T12:50:42.456Z,23.54
2022-09-03T12:51:56.870Z,23.54
2022-09-03T12:52:38.602Z,23.61
2022-09-03T12:53:38.617Z,23.53
2022-09-03T12:54:38.654Z,23.47
2022-09-03T12:55:38.608Z,23.42